Terminal Aerodrome Forecast
Issued by NWS Wilmington, OH

Current Version | Previous Version | Text Only | Print | Product List | Glossary Off
Versions: 1 2 3 4 5 6 7 8 9 10 11 12 13 14 15 16 17 18 19

196
FTUS41 KILN 230533
TAFDAY
TAF
KDAY 230533Z 2306/2406 15004KT P6SM SKC
     FM231600 17006KT P6SM FEW040 SCT250
     FM240000 14005KT P6SM BKN250=

USA.gov is the U.S. government's official web portal to all federal, state and local government web resources and services.